createdAt,value
2019-06-07T00:01:21.226Z,1.53
2019-06-07T00:06:28.768Z,1.20
2019-06-07T00:11:36.204Z,1.60
2019-06-07T00:16:44.687Z,0.53
2019-06-07T00:22:15.660Z,2.67
2019-06-07T00:27:01.191Z,2.17
2019-06-07T00:32:09.297Z,1.03
2019-06-07T00:37:19.776Z,1.20
2019-06-07T00:42:25.918Z,0.93
2019-06-07T00:47:33.332Z,0.77
2019-06-07T00:57:49.870Z,3.40
2019-06-07T01:02:57.782Z,1.03
2019-06-07T01:08:05.351Z,0.80
2019-06-07T01:13:15.125Z,0.77
2019-06-07T01:18:37.265Z,2.83
2019-06-07T01:24:04.678Z,1.87
2019-06-07T01:28:41.280Z,3.40
2019-06-07T01:33:51.260Z,1.53
2019-06-07T01:38:57.703Z,1.90
2019-06-07T01:44:05.169Z,3.67
2019-06-07T01:49:12.617Z,1.73
2019-06-07T01:54:53.348Z,1.60
2019-06-07T01:59:31.670Z,2.47
2019-06-07T02:04:38.479Z,1.07
2019-06-07T02:09:45.977Z,4.03
2019-06-07T02:14:53.396Z,6.70
2019-06-07T02:20:00.729Z,1.37
2019-06-07T02:30:42.219Z,0.77
2019-06-07T02:35:38.755Z,1.30
2019-06-07T02:40:37.436Z,3.03
2019-06-07T02:45:44.891Z,0.20
2019-06-07T02:50:52.880Z,1.17
2019-06-07T02:56:34.889Z,0.73
2019-06-07T03:01:10.075Z,1.37
2019-06-07T03:06:18.206Z,1.23
2019-06-07T03:11:31.663Z,2.77
2019-06-07T03:16:46.058Z,0.90
2019-06-07T03:21:55.209Z,0.57
2019-06-07T03:32:12.113Z,6.37
2019-06-07T03:37:19.540Z,0.50
2019-06-07T03:42:26.972Z,1.27
2019-06-07T03:47:36.484Z,1.07
2019-06-07T03:52:43.611Z,3.07
2019-06-07T04:03:00.076Z,1.77
2019-06-07T04:08:07.596Z,0.50
2019-06-07T04:13:15.085Z,1.17
2019-06-07T04:18:22.506Z,0.90
2019-06-07T04:23:34.922Z,1.17
2019-06-07T04:29:30.861Z,0.57
2019-06-07T04:33:50.749Z,3.83
2019-06-07T04:38:59.244Z,3.33
2019-06-07T04:44:08.694Z,4.37
2019-06-07T04:49:21.065Z,1.90
2019-06-07T04:54:31.056Z,31.63
2019-06-07T05:04:46.805Z,29.50
2019-06-07T05:09:54.270Z,27.23
2019-06-07T05:15:01.755Z,29.83
2019-06-07T05:20:09.418Z,34.93
2019-06-07T05:25:18.576Z,30.10
2019-06-07T05:35:49.041Z,34.53
2019-06-07T05:40:56.468Z,31.03
2019-06-07T05:46:03.883Z,33.00
2019-06-07T05:51:11.415Z,37.33
2019-06-07T05:56:18.915Z,32.60
2019-06-07T06:01:43.024Z,38.20
2019-06-07T06:06:36.357Z,39.23
2019-06-07T06:11:58.494Z,45.77
2019-06-07T06:16:54.158Z,36.83
2019-06-07T06:22:01.631Z,35.53
2019-06-07T06:27:28.456Z,38.97
2019-06-07T06:37:27.537Z,34.27
2019-06-07T06:42:34.921Z,36.60
2019-06-07T06:47:43.404Z,34.07
2019-06-07T06:52:54.510Z,35.90
2019-06-07T06:58:00.434Z,35.00
2019-06-07T07:03:47.220Z,27.03
2019-06-07T07:08:16.887Z,30.33
2019-06-07T07:13:24.292Z,24.20
2019-06-07T07:18:31.759Z,25.27
2019-06-07T07:23:39.155Z,24.70
2019-06-07T07:28:53.955Z,26.47
2019-06-07T07:34:28.369Z,26.27
2019-06-07T07:39:07.072Z,25.77
2019-06-07T07:44:14.491Z,24.00
2019-06-07T07:49:21.840Z,22.33
2019-06-07T07:54:29.214Z,21.87
2019-06-07T07:59:42.143Z,21.80
2019-06-07T08:05:20.566Z,22.43
2019-06-07T08:09:57.702Z,20.97
2019-06-07T08:15:04.194Z,21.77
2019-06-07T08:20:14.833Z,22.50
2019-06-07T08:25:23.697Z,22.03
2019-06-07T08:30:50.763Z,22.00
2019-06-07T08:36:05.739Z,19.63
2019-06-07T08:40:54.606Z,20.97
2019-06-07T08:46:06.010Z,21.13
2019-06-07T08:51:08.704Z,20.13
2019-06-07T08:56:16.321Z,24.33
2019-06-07T09:01:23.748Z,22.27
2019-06-07T09:11:40.161Z,22.50
2019-06-07T09:16:47.591Z,23.13
2019-06-07T09:21:57.452Z,22.63
2019-06-07T09:27:07.626Z,22.83
2019-06-07T09:32:18.250Z,20.77
2019-06-07T09:38:03.792Z,23.33
2019-06-07T09:42:31.542Z,25.13
2019-06-07T09:47:38.877Z,21.20
2019-06-07T09:52:57.853Z,24.47
2019-06-07T09:57:58.253Z,22.90
2019-06-07T10:03:16.753Z,22.03
2019-06-07T10:09:15.166Z,23.40
2019-06-07T10:13:22.626Z,23.37
2019-06-07T10:18:31.165Z,22.27
2019-06-07T10:23:38.617Z,26.27
2019-06-07T10:28:46.121Z,22.47
2019-06-07T10:33:53.365Z,23.97
2019-06-07T10:39:00.829Z,21.87
2019-06-07T10:44:09.707Z,19.30
2019-06-07T10:49:18.255Z,16.83
2019-06-07T10:54:30.393Z,19.20
2019-06-07T10:59:34.631Z,17.33
2019-06-07T11:04:42.041Z,18.50
2019-06-07T11:10:05.703Z,23.63
2019-06-07T11:14:58.518Z,19.27
2019-06-07T11:20:08.313Z,20.43
2019-06-07T11:25:16.328Z,20.67
2019-06-07T11:30:23.805Z,16.20
2019-06-07T11:35:31.385Z,16.30
2019-06-07T11:40:38.755Z,15.93
2019-06-07T11:45:46.115Z,18.30
2019-06-07T11:50:53.578Z,14.67
2019-06-07T11:56:00.981Z,12.93
2019-06-07T12:01:09.579Z,12.40
2019-06-07T12:06:18.137Z,12.23
2019-06-07T12:11:25.557Z,12.60
2019-06-07T12:16:32.932Z,13.27
2019-06-07T12:21:40.400Z,14.53
2019-06-07T12:26:47.757Z,13.70
2019-06-07T12:31:55.225Z,13.45
2019-06-07T12:37:02.704Z,13.43
2019-06-07T12:42:10.212Z,11.43
2019-06-07T12:47:18.859Z,10.32
2019-06-07T12:52:26.423Z,9.05
2019-06-07T12:57:33.851Z,10.90
2019-06-07T13:02:41.276Z,8.25
2019-06-07T13:07:48.618Z,7.50
2019-06-07T13:12:56.098Z,6.03
2019-06-07T13:18:03.574Z,6.03
2019-06-07T13:23:11.002Z,5.55
2019-06-07T13:28:18.960Z,5.28
2019-06-07T13:33:31.982Z,5.85
2019-06-07T13:38:35.465Z,5.37
2019-06-07T13:43:42.921Z,5.55
2019-06-07T13:48:50.259Z,6.12
2019-06-07T13:53:58.777Z,6.17
2019-06-07T13:59:06.308Z,6.37
2019-06-07T14:04:13.828Z,5.85
2019-06-07T14:09:21.262Z,5.85
2019-06-07T14:14:29.510Z,5.40
2019-06-07T14:19:37.653Z,6.03
2019-06-07T14:24:45.021Z,5.08
2019-06-07T14:29:52.439Z,6.58
2019-06-07T14:35:00.139Z,11.38
2019-06-07T14:40:08.919Z,5.20
2019-06-07T14:45:17.556Z,6.33
2019-06-07T14:50:26.086Z,5.70
2019-06-07T14:55:33.415Z,5.78
2019-06-07T15:00:45.939Z,6.55
2019-06-07T15:05:53.291Z,7.15
2019-06-07T15:11:00.677Z,7.87
2019-06-07T15:16:08.067Z,8.55
2019-06-07T15:21:15.493Z,8.63
2019-06-07T15:26:22.885Z,11.85
2019-06-07T15:31:30.286Z,9.65
2019-06-07T15:36:39.182Z,8.90
2019-06-07T15:41:46.594Z,10.03
2019-06-07T15:46:53.942Z,10.03
2019-06-07T15:52:01.315Z,9.00
2019-06-07T15:57:08.645Z,8.80
2019-06-07T16:02:15.982Z,9.95
2019-06-07T16:07:23.431Z,9.20
2019-06-07T16:12:30.937Z,10.72
2019-06-07T16:17:39.223Z,9.70
2019-06-07T16:22:46.754Z,9.28
2019-06-07T16:27:54.133Z,9.90
2019-06-07T16:33:01.552Z,9.58
2019-06-07T16:38:09.097Z,9.97
2019-06-07T16:43:18.185Z,10.33
2019-06-07T16:48:25.585Z,9.33
2019-06-07T16:53:33.058Z,9.70
2019-06-07T16:58:40.397Z,13.75
2019-06-07T17:03:47.909Z,11.83
2019-06-07T17:08:58.019Z,11.77
2019-06-07T17:14:06.574Z,13.47
2019-06-07T17:19:14.107Z,13.03
2019-06-07T17:24:21.526Z,13.00
2019-06-07T17:29:29.044Z,10.60
2019-06-07T17:34:36.427Z,11.53
2019-06-07T17:39:44.963Z,11.30
2019-06-07T17:44:52.577Z,15.33
2019-06-07T17:49:59.938Z,11.10
2019-06-07T17:55:08.136Z,10.13
2019-06-07T18:00:33.426Z,13.27
2019-06-07T18:05:25.885Z,12.53
2019-06-07T18:10:38.748Z,13.13
2019-06-07T18:15:52.816Z,10.30
2019-06-07T18:20:56.939Z,11.93
2019-06-07T18:26:04.308Z,13.10
2019-06-07T18:31:11.821Z,11.47
2019-06-07T18:36:19.237Z,10.80
2019-06-07T18:41:26.487Z,11.30
2019-06-07T18:46:33.875Z,14.17
2019-06-07T18:51:41.272Z,10.57
2019-06-07T18:56:48.846Z,10.70
2019-06-07T19:01:57.598Z,13.33
2019-06-07T19:07:05.136Z,14.30
2019-06-07T19:12:12.554Z,13.73
2019-06-07T19:17:20.039Z,13.83
2019-06-07T19:22:27.472Z,12.60
2019-06-07T19:27:35.082Z,13.63
2019-06-07T19:32:42.607Z,16.50
2019-06-07T19:37:50.017Z,13.90
2019-06-07T19:42:58.637Z,14.67
2019-06-07T19:48:06.488Z,12.87
2019-06-07T19:53:13.980Z,16.90
2019-06-07T19:58:21.546Z,15.50
2019-06-07T20:03:29.134Z,14.07
2019-06-07T20:08:36.722Z,15.10
2019-06-07T20:13:45.845Z,15.87
2019-06-07T20:18:53.342Z,19.03
2019-06-07T20:24:22.017Z,15.40
2019-06-07T20:29:24.877Z,15.90
2019-06-07T20:34:19.052Z,16.00
2019-06-07T20:39:26.578Z,18.93
2019-06-07T20:44:34.029Z,17.00
2019-06-07T20:49:41.454Z,16.07
2019-06-07T20:54:48.780Z,18.20
2019-06-07T20:59:56.206Z,19.27
2019-06-07T21:05:03.645Z,17.17
2019-06-07T21:10:11.454Z,20.73
2019-06-07T21:15:19.377Z,19.67
2019-06-07T21:20:26.818Z,18.57
2019-06-07T21:25:34.370Z,18.23
2019-06-07T21:30:42.264Z,17.73
2019-06-07T21:35:49.715Z,18.83
2019-06-07T21:40:57.163Z,18.43
2019-06-07T21:46:09.340Z,21.83
2019-06-07T21:51:13.709Z,23.27
2019-06-07T21:56:21.145Z,20.90
2019-06-07T22:01:33.547Z,21.73
2019-06-07T22:06:40.989Z,18.63
2019-06-07T22:11:49.404Z,18.80
2019-06-07T22:16:59.346Z,18.13
2019-06-07T22:22:09.329Z,18.70
2019-06-07T22:27:17.721Z,15.87
2019-06-07T22:32:25.315Z,18.87
2019-06-07T22:37:32.753Z,21.33
2019-06-07T22:42:40.109Z,16.93
2019-06-07T22:47:47.489Z,17.37
2019-06-07T22:52:55.024Z,19.23
2019-06-07T22:58:02.484Z,15.47
2019-06-07T23:03:10.661Z,17.63
2019-06-07T23:08:19.106Z,20.53
2019-06-07T23:13:26.525Z,18.73
2019-06-07T23:18:33.981Z,17.00
2019-06-07T23:23:41.408Z,18.33
2019-06-07T23:28:48.786Z,18.53
2019-06-07T23:33:56.196Z,18.00
2019-06-07T23:39:05.252Z,19.53
2019-06-07T23:44:13.310Z,17.23
2019-06-07T23:49:22.421Z,18.63
2019-06-07T23:54:30.046Z,14.00
2019-06-07T23:59:37.482Z,17.90
